sensor_id;sensor_type;location;lat;lon;timestamp;pressure;altitude;pressure_sealevel;temperature;humidity
27805;BME280;15183;51.350;11.102;2023-01-28T00:01:04;101053.03;;;4.80;68.87
27805;BME280;15183;51.350;11.102;2023-01-28T00:03:31;101046.03;;;4.62;68.90
27805;BME280;15183;51.350;11.102;2023-01-28T00:06:09;101076.03;;;4.86;68.74
27805;BME280;15183;51.350;11.102;2023-01-28T00:08:35;101064.50;;;4.79;68.98
27805;BME280;15183;51.350;11.102;2023-01-28T00:11:04;101057.03;;;4.66;69.01
27805;BME280;15183;51.350;11.102;2023-01-28T00:13:32;101038.66;;;4.66;69.33
27805;BME280;15183;51.350;11.102;2023-01-28T00:16:02;101065.16;;;4.81;68.89
27805;BME280;15183;51.350;11.102;2023-01-28T00:18:30;101074.84;;;4.81;68.67
27805;BME280;15183;51.350;11.102;2023-01-28T00:21:00;101063.16;;;4.75;68.50
27805;BME280;15183;51.350;11.102;2023-01-28T00:23:28;101068.41;;;4.75;68.66
27805;BME280;15183;51.350;11.102;2023-01-28T00:26:00;101068.56;;;4.73;69.09
27805;BME280;15183;51.350;11.102;2023-01-28T00:28:27;101005.03;;;4.35;68.61
27805;BME280;15183;51.350;11.102;2023-01-28T00:30:53;101028.06;;;4.49;68.79
27805;BME280;15183;51.350;11.102;2023-01-28T00:33:20;101061.00;;;4.70;68.65
27805;BME280;15183;51.350;11.102;2023-01-28T00:35:46;101046.84;;;4.63;68.93
27805;BME280;15183;51.350;11.102;2023-01-28T00:38:13;101038.25;;;4.53;69.41
27805;BME280;15183;51.350;11.102;2023-01-28T00:40:39;101043.03;;;4.57;68.87
27805;BME280;15183;51.350;11.102;2023-01-28T00:43:05;101043.25;;;4.64;69.09
27805;BME280;15183;51.350;11.102;2023-01-28T00:45:32;101064.28;;;4.72;68.68
27805;BME280;15183;51.350;11.102;2023-01-28T00:47:58;101010.94;;;4.37;68.57
27805;BME280;15183;51.350;11.102;2023-01-28T00:50:25;101062.22;;;4.84;69.56
27805;BME280;15183;51.350;11.102;2023-01-28T00:52:51;101045.06;;;4.72;68.88
27805;BME280;15183;51.350;11.102;2023-01-28T00:55:18;101063.22;;;4.83;69.00
27805;BME280;15183;51.350;11.102;2023-01-28T00:57:45;101074.19;;;4.87;69.29
27805;BME280;15183;51.350;11.102;2023-01-28T01:00:11;101069.47;;;4.90;69.23
27805;BME280;15183;51.350;11.102;2023-01-28T01:02:38;101038.72;;;4.74;69.03
27805;BME280;15183;51.350;11.102;2023-01-28T01:05:05;101047.91;;;4.78;69.26
27805;BME280;15183;51.350;11.102;2023-01-28T01:07:31;101044.97;;;4.82;69.32
27805;BME280;15183;51.350;11.102;2023-01-28T01:10:15;101059.78;;;4.91;69.52
27805;BME280;15183;51.350;11.102;2023-01-28T01:12:42;101056.16;;;4.92;69.26
27805;BME280;15183;51.350;11.102;2023-01-28T01:15:12;101041.00;;;4.77;69.57
27805;BME280;15183;51.350;11.102;2023-01-28T01:17:41;101011.94;;;4.71;69.47
27805;BME280;15183;51.350;11.102;2023-01-28T01:20:23;101061.31;;;5.02;69.02
27805;BME280;15183;51.350;11.102;2023-01-28T01:22:50;101078.91;;;5.10;68.99
27805;BME280;15183;51.350;11.102;2023-01-28T01:25:19;101043.66;;;4.86;69.37
27805;BME280;15183;51.350;11.102;2023-01-28T01:27:48;101008.78;;;4.59;69.34
27805;BME280;15183;51.350;11.102;2023-01-28T01:30:15;101063.63;;;5.05;69.23
27805;BME280;15183;51.350;11.102;2023-01-28T01:32:42;101071.66;;;5.03;69.16
27805;BME280;15183;51.350;11.102;2023-01-28T01:35:09;101066.72;;;5.00;69.44
27805;BME280;15183;51.350;11.102;2023-01-28T01:37:36;101077.09;;;5.10;69.53
27805;BME280;15183;51.350;11.102;2023-01-28T01:40:03;101063.63;;;5.05;68.81
27805;BME280;15183;51.350;11.102;2023-01-28T01:42:32;101063.75;;;4.95;68.69
27805;BME280;15183;51.350;11.102;2023-01-28T01:45:15;101077.25;;;5.00;68.49
27805;BME280;15183;51.350;11.102;2023-01-28T01:48:23;101078.84;;;4.93;69.01
27805;BME280;15183;51.350;11.102;2023-01-28T01:51:01;101076.81;;;4.87;69.39
27805;BME280;15183;51.350;11.102;2023-01-28T01:53:30;101075.19;;;4.86;69.51
27805;BME280;15183;51.350;11.102;2023-01-28T01:56:03;101071.53;;;4.78;69.39
27805;BME280;15183;51.350;11.102;2023-01-28T01:58:35;101074.34;;;4.77;69.10
27805;BME280;15183;51.350;11.102;2023-01-28T02:01:04;101052.75;;;4.57;69.17
27805;BME280;15183;51.350;11.102;2023-01-28T02:03:52;101072.47;;;4.69;69.09
27805;BME280;15183;51.350;11.102;2023-01-28T02:06:21;101041.69;;;4.45;69.53
27805;BME280;15183;51.350;11.102;2023-01-28T02:08:48;101078.66;;;4.60;69.22
27805;BME280;15183;51.350;11.102;2023-01-28T02:11:16;101094.47;;;4.68;69.11
27805;BME280;15183;51.350;11.102;2023-01-28T02:13:49;101100.53;;;4.69;nan
27805;BME280;15183;51.350;11.102;2023-01-28T02:16:18;101102.16;;;4.70;69.63
27805;BME280;15183;51.350;11.102;2023-01-28T02:18:45;101084.91;;;4.59;69.42
27805;BME280;15183;51.350;11.102;2023-01-28T02:30:06;101096.09;;;4.69;69.42
27805;BME280;15183;51.350;11.102;2023-01-28T02:32:55;101103.03;;;4.78;69.48
27805;BME280;15183;51.350;11.102;2023-01-28T02:35:40;101097.16;;;4.85;69.08
27805;BME280;15183;51.350;11.102;2023-01-28T02:38:15;101093.53;;;4.77;69.29
27805;BME280;15183;51.350;11.102;2023-01-28T02:40:51;101087.97;;;4.81;68.89
27805;BME280;15183;51.350;11.102;2023-01-28T02:43:42;101097.97;;;4.77;68.67
27805;BME280;15183;51.350;11.102;2023-01-28T02:49:17;101104.88;;;4.78;68.86
27805;BME280;15183;51.350;11.102;2023-01-28T02:54:40;101117.78;;;4.71;68.38
27805;BME280;15183;51.350;11.102;2023-01-28T02:57:24;101125.28;;;4.66;68.80
27805;BME280;15183;51.350;11.102;2023-01-28T03:00:18;101103.19;;;4.51;69.26
27805;BME280;15183;51.350;11.102;2023-01-28T03:03:16;101105.31;;;4.47;68.83
27805;BME280;15183;51.350;11.102;2023-01-28T03:05:57;101129.28;;;4.52;68.79
27805;BME280;15183;51.350;11.102;2023-01-28T03:11:35;101125.47;;;4.46;69.52
27805;BME280;15183;51.350;11.102;2023-01-28T03:14:23;101119.06;;;4.41;69.08
27805;BME280;15183;51.350;11.102;2023-01-28T03:17:18;101127.28;;;4.46;69.05
27805;BME280;15183;51.350;11.102;2023-01-28T03:20:07;101135.66;;;4.49;68.92
27805;BME280;15183;51.350;11.102;2023-01-28T03:22:54;101119.38;;;4.38;69.12
27805;BME280;15183;51.350;11.102;2023-01-28T03:25:43;101131.03;;;4.43;69.41
27805;BME280;15183;51.350;11.102;2023-01-28T03:28:31;101128.41;;;4.43;69.51
27805;BME280;15183;51.350;11.102;2023-01-28T03:31:18;101137.97;;;4.53;69.00
27805;BME280;15183;51.350;11.102;2023-01-28T03:34:05;101131.69;;;4.45;69.26
27805;BME280;15183;51.350;11.102;2023-01-28T03:36:53;101118.88;;;4.42;69.15
27805;BME280;15183;51.350;11.102;2023-01-28T03:39:29;101134.84;;;4.49;68.96
27805;BME280;15183;51.350;11.102;2023-01-28T03:42:05;101141.88;;;4.48;68.72
27805;BME280;15183;51.350;11.102;2023-01-28T03:44:32;101055.19;;;3.87;68.87
27805;BME280;15183;51.350;11.102;2023-01-28T03:47:27;101133.06;;;4.31;69.03
27805;BME280;15183;51.350;11.102;2023-01-28T03:49:56;101141.31;;;4.37;69.26
27805;BME280;15183;51.350;11.102;2023-01-28T03:52:30;101142.50;;;4.42;68.84
27805;BME280;15183;51.350;11.102;2023-01-28T03:54:57;101125.00;;;4.25;68.68
27805;BME280;15183;51.350;11.102;2023-01-28T03:57:26;101134.81;;;4.23;68.95
27805;BME280;15183;51.350;11.102;2023-01-28T03:59:53;101137.19;;;4.34;68.78
27805;BME280;15183;51.350;11.102;2023-01-28T04:02:21;101143.34;;;4.43;69.02
27805;BME280;15183;51.350;11.102;2023-01-28T04:04:48;101148.13;;;4.47;68.77
27805;BME280;15183;51.350;11.102;2023-01-28T04:07:15;101153.06;;;4.51;69.09
27805;BME280;15183;51.350;11.102;2023-01-28T04:09:42;101121.00;;;4.39;68.92
27805;BME280;15183;51.350;11.102;2023-01-28T04:12:09;101146.06;;;4.59;69.03
27805;BME280;15183;51.350;11.102;2023-01-28T04:18:17;101139.06;;;4.42;68.65
27805;BME280;15183;51.350;11.102;2023-01-28T04:20:44;101146.78;;;4.43;69.03
27805;BME280;15183;51.350;11.102;2023-01-28T04:23:13;101141.88;;;4.48;68.74
27805;BME280;15183;51.350;11.102;2023-01-28T04:25:40;101136.94;;;4.45;68.60
27805;BME280;15183;51.350;11.102;2023-01-28T04:28:06;101157.41;;;4.60;68.79
27805;BME280;15183;51.350;11.102;2023-01-28T04:30:33;101153.63;;;4.62;68.86
27805;BME280;15183;51.350;11.102;2023-01-28T04:32:59;101125.47;;;4.46;68.51
27805;BME280;15183;51.350;11.102;2023-01-28T04:35:25;101135.88;;;4.56;68.78
27805;BME280;15183;51.350;11.102;2023-01-28T04:37:52;101134.78;;;4.59;69.24
27805;BME280;15183;51.350;11.102;2023-01-28T04:40:18;101136.84;;;4.55;68.63
27805;BME280;15183;51.350;11.102;2023-01-28T04:42:53;101160.91;;;4.69;68.37
27805;BME280;15183;51.350;11.102;2023-01-28T04:45:20;101156.78;;;4.66;68.52
27805;BME280;15183;51.350;11.102;2023-01-28T04:47:46;101147.72;;;4.60;68.71
27805;BME280;15183;51.350;11.102;2023-01-28T04:50:13;101141.97;;;4.57;68.62
27805;BME280;15183;51.350;11.102;2023-01-28T04:52:39;101139.84;;;4.60;68.99
27805;BME280;15183;51.350;11.102;2023-01-28T04:55:06;101132.94;;;4.59;68.75
27805;BME280;15183;51.350;11.102;2023-01-28T04:57:33;101150.94;;;4.72;68.44
27805;BME280;15183;51.350;11.102;2023-01-28T04:59:59;101113.56;;;4.52;68.80
27805;BME280;15183;51.350;11.102;2023-01-28T05:02:25;101164.47;;;4.86;68.73
27805;BME280;15183;51.350;11.102;2023-01-28T05:04:52;101156.09;;;4.82;69.11
27805;BME280;15183;51.350;11.102;2023-01-28T05:07:18;101161.34;;;4.82;68.78
27805;BME280;15183;51.350;11.102;2023-01-28T05:09:44;101158.50;;;4.75;68.43
27805;BME280;15183;51.350;11.102;2023-01-28T05:12:11;101117.25;;;4.41;69.01
27805;BME280;15183;51.350;11.102;2023-01-28T05:14:37;101163.13;;;4.82;68.83
27805;BME280;15183;51.350;11.102;2023-01-28T05:17:04;101137.88;;;4.62;68.46
27805;BME280;15183;51.350;11.102;2023-01-28T05:19:30;101167.03;;;4.77;68.93
27805;BME280;15183;51.350;11.102;2023-01-28T05:21:56;101162.22;;;4.73;68.49
27805;BME280;15183;51.350;11.102;2023-01-28T05:24:23;101154.00;;;4.68;68.81
27805;BME280;15183;51.350;11.102;2023-01-28T05:26:49;101180.69;;;4.81;68.45
27805;BME280;15183;51.350;11.102;2023-01-28T05:29:16;101159.88;;;4.61;68.65
27805;BME280;15183;51.350;11.102;2023-01-28T05:31:42;101162.31;;;4.55;68.13
27805;BME280;15183;51.350;11.102;2023-01-28T05:34:08;101179.88;;;4.62;68.60
27805;BME280;15183;51.350;11.102;2023-01-28T05:36:35;101161.16;;;4.57;68.31
27805;BME280;15183;51.350;11.102;2023-01-28T05:39:01;101193.38;;;4.68;68.29
27805;BME280;15183;51.350;11.102;2023-01-28T05:41:27;101201.84;;;4.80;68.39
27805;BME280;15183;51.350;11.102;2023-01-28T05:43:54;101176.81;;;4.67;67.92
27805;BME280;15183;51.350;11.102;2023-01-28T05:46:20;101173.66;;;4.63;68.19
27805;BME280;15183;51.350;11.102;2023-01-28T05:48:47;101190.66;;;4.77;68.04
27805;BME280;15183;51.350;11.102;2023-01-28T05:51:16;101196.34;;;4.73;67.82
27805;BME280;15183;51.350;11.102;2023-01-28T05:53:42;101202.75;;;4.70;68.05
27805;BME280;15183;51.350;11.102;2023-01-28T05:56:09;101179.00;;;4.54;67.86
27805;BME280;15183;51.350;11.102;2023-01-28T05:58:35;101196.41;;;4.55;67.96
27805;BME280;15183;51.350;11.102;2023-01-28T06:01:02;101202.84;;;4.60;67.78
27805;BME280;15183;51.350;11.102;2023-01-28T06:03:28;101195.28;;;4.57;68.05
27805;BME280;15183;51.350;11.102;2023-01-28T06:05:55;101192.41;;;4.51;67.70
27805;BME280;15183;51.350;11.102;2023-01-28T06:08:21;101207.03;;;4.53;67.36
27805;BME280;15183;51.350;11.102;2023-01-28T06:10:47;101153.75;;;4.16;67.64
27805;BME280;15183;51.350;11.102;2023-01-28T06:13:14;101206.31;;;4.61;67.69
27805;BME280;15183;51.350;11.102;2023-01-28T06:15:40;101198.19;;;4.54;67.83
27805;BME280;15183;51.350;11.102;2023-01-28T06:18:07;101206.81;;;4.64;67.70
27805;BME280;15183;51.350;11.102;2023-01-28T06:20:33;101211.06;;;4.66;67.60
27805;BME280;15183;51.350;11.102;2023-01-28T06:22:59;101192.81;;;4.56;67.57
27805;BME280;15183;51.350;11.102;2023-01-28T06:25:26;101206.59;;;4.58;67.42
27805;BME280;15183;51.350;11.102;2023-01-28T06:27:53;101185.81;;;4.46;66.96
27805;BME280;15183;51.350;11.102;2023-01-28T06:30:19;101175.63;;;4.43;66.76
27805;BME280;15183;51.350;11.102;2023-01-28T06:32:46;101207.28;;;4.60;67.12
27805;BME280;15183;51.350;11.102;2023-01-28T06:35:12;101223.09;;;4.68;67.22
27805;BME280;15183;51.350;11.102;2023-01-28T06:37:38;101175.19;;;4.30;66.53
27805;BME280;15183;51.350;11.102;2023-01-28T06:40:07;101222.50;;;4.56;66.93
27805;BME280;15183;51.350;11.102;2023-01-28T06:42:34;101224.81;;;4.59;66.64
27805;BME280;15183;51.350;11.102;2023-01-28T06:45:00;101243.91;;;4.70;66.88
27805;BME280;15183;51.350;11.102;2023-01-28T06:47:27;101220.22;;;4.61;66.56
27805;BME280;15183;51.350;11.102;2023-01-28T06:49:53;101213.88;;;4.64;66.66
27805;BME280;15183;51.350;11.102;2023-01-28T06:52:20;101203.97;;;4.58;66.10
27805;BME280;15183;51.350;11.102;2023-01-28T06:54:46;101241.38;;;4.78;66.35
27805;BME280;15183;51.350;11.102;2023-01-28T06:57:12;101177.00;;;4.29;66.31
27805;BME280;15183;51.350;11.102;2023-01-28T06:59:39;101231.78;;;4.69;65.71
27805;BME280;15183;51.350;11.102;2023-01-28T07:02:06;101241.22;;;4.61;65.76
27805;BME280;15183;51.350;11.102;2023-01-28T07:04:34;101221.91;;;4.44;65.58
27805;BME280;15183;51.350;11.102;2023-01-28T07:07:00;101164.63;;;4.03;65.64
27805;BME280;15183;51.350;11.102;2023-01-28T07:09:27;101246.72;;;4.50;65.60
27805;BME280;15183;51.350;11.102;2023-01-28T07:11:53;101237.50;;;4.46;65.59
27805;BME280;15183;51.350;11.102;2023-01-28T07:14:20;101235.06;;;4.34;65.51
27805;BME280;15183;51.350;11.102;2023-01-28T07:16:46;101204.78;;;4.04;64.91
27805;BME280;15183;51.350;11.102;2023-01-28T07:19:12;101264.47;;;4.38;64.59
27805;BME280;15183;51.350;11.102;2023-01-28T07:21:39;101243.03;;;4.25;64.65
27805;BME280;15183;51.350;11.102;2023-01-28T07:24:05;101254.88;;;4.29;64.63
27805;BME280;15183;51.350;11.102;2023-01-28T07:26:32;101267.94;;;4.39;64.51
27805;BME280;15183;51.350;11.102;2023-01-28T07:28:58;101263.13;;;4.34;64.62
27805;BME280;15183;51.350;11.102;2023-01-28T07:31:25;101251.28;;;4.30;64.37
27805;BME280;15183;51.350;11.102;2023-01-28T07:33:51;101184.63;;;3.86;64.26
27805;BME280;15183;51.350;11.102;2023-01-28T07:36:18;101264.84;;;4.43;64.20
27805;BME280;15183;51.350;11.102;2023-01-28T07:38:44;101248.66;;;4.30;64.41
27805;BME280;15183;51.350;11.102;2023-01-28T07:41:10;101249.34;;;4.32;63.90
27805;BME280;15183;51.350;11.102;2023-01-28T07:43:37;101264.47;;;4.38;63.74
27805;BME280;15183;51.350;11.102;2023-01-28T07:46:03;101234.69;;;4.11;63.68
27805;BME280;15183;51.350;11.102;2023-01-28T07:48:30;101272.34;;;4.38;63.91
27805;BME280;15183;51.350;11.102;2023-01-28T07:50:59;101277.91;;;4.35;63.94
27805;BME280;15183;51.350;11.102;2023-01-28T07:53:26;101273.91;;;4.31;63.17
27805;BME280;15183;51.350;11.102;2023-01-28T07:55:59;101261.53;;;4.23;63.39
27805;BME280;15183;51.350;11.102;2023-01-28T07:58:26;101236.72;;;3.99;63.39
27805;BME280;15183;51.350;11.102;2023-01-28T08:00:56;101264.44;;;4.20;63.01
27805;BME280;15183;51.350;11.102;2023-01-28T08:03:27;101259.38;;;4.18;63.66
27805;BME280;15183;51.350;11.102;2023-01-28T08:05:55;101265.59;;;4.17;63.03
27805;BME280;15183;51.350;11.102;2023-01-28T08:08:23;101180.75;;;3.62;63.01
27805;BME280;15183;51.350;11.102;2023-01-28T08:10:50;101209.06;;;3.77;63.17
27805;BME280;15183;51.350;11.102;2023-01-28T08:13:17;101267.00;;;4.12;62.60
27805;BME280;15183;51.350;11.102;2023-01-28T08:15:44;101283.53;;;4.12;62.57
27805;BME280;15183;51.350;11.102;2023-01-28T08:18:13;101265.97;;;3.95;62.67
27805;BME280;15183;51.350;11.102;2023-01-28T08:20:42;101284.63;;;4.19;62.93
27805;BME280;15183;51.350;11.102;2023-01-28T08:23:16;101280.75;;;4.24;62.86
27805;BME280;15183;51.350;11.102;2023-01-28T08:25:43;101247.91;;;4.19;63.36
27805;BME280;15183;51.350;11.102;2023-01-28T08:28:11;101266.13;;;4.39;63.29
27805;BME280;15183;51.350;11.102;2023-01-28T08:30:38;101263.75;;;4.46;62.94
27805;BME280;15183;51.350;11.102;2023-01-28T08:33:07;101276.25;;;4.52;62.87
27805;BME280;15183;51.350;11.102;2023-01-28T08:35:35;101248.31;;;4.43;62.74
27805;BME280;15183;51.350;11.102;2023-01-28T08:38:03;101274.69;;;4.59;62.51
27805;BME280;15183;51.350;11.102;2023-01-28T08:40:30;101266.81;;;4.59;62.89
27805;BME280;15183;51.350;11.102;2023-01-28T08:42:56;101301.31;;;4.83;62.83
27805;BME280;15183;51.350;11.102;2023-01-28T08:45:25;101293.97;;;4.86;62.77
27805;BME280;15183;51.350;11.102;2023-01-28T08:48:13;101280.28;;;4.83;62.68
27805;BME280;15183;51.350;11.102;2023-01-28T08:50:41;101277.66;;;4.83;62.61
27805;BME280;15183;51.350;11.102;2023-01-28T08:53:12;101283.16;;;4.89;62.71
27805;BME280;15183;51.350;11.102;2023-01-28T08:55:38;101226.09;;;4.55;62.84
27805;BME280;15183;51.350;11.102;2023-01-28T08:58:09;101299.50;;;5.01;62.33
27805;BME280;15183;51.350;11.102;2023-01-28T09:00:36;101320.28;;;5.13;62.28
27805;BME280;15183;51.350;11.102;2023-01-28T09:03:04;101299.69;;;5.08;62.41
27805;BME280;15183;51.350;11.102;2023-01-28T09:05:31;101217.53;;;4.53;62.13
27805;BME280;15183;51.350;11.102;2023-01-28T09:08:11;101312.69;;;5.10;62.09
27805;BME280;15183;51.350;11.102;2023-01-28T09:10:39;101278.03;;;4.88;62.45
27805;BME280;15183;51.350;11.102;2023-01-28T09:13:09;101314.25;;;5.20;62.54
27805;BME280;15183;51.350;11.102;2023-01-28T09:15:37;101284.47;;;5.12;62.32
27805;BME280;15183;51.350;11.102;2023-01-28T09:18:04;101315.34;;;5.36;61.89
27805;BME280;15183;51.350;11.102;2023-01-28T09:21:08;101316.53;;;5.42;61.83
27805;BME280;15183;51.350;11.102;2023-01-28T09:23:36;101314.81;;;5.50;62.14
27805;BME280;15183;51.350;11.102;2023-01-28T09:26:04;101306.59;;;5.54;61.99
27805;BME280;15183;51.350;11.102;2023-01-28T09:28:32;101282.50;;;5.40;61.25
27805;BME280;15183;51.350;11.102;2023-01-28T09:31:10;101307.44;;;5.62;61.83
27805;BME280;15183;51.350;11.102;2023-01-28T09:33:39;101291.72;;;5.44;61.76
27805;BME280;15183;51.350;11.102;2023-01-28T09:36:07;101336.94;;;5.74;61.60
27805;BME280;15183;51.350;11.102;2023-01-28T09:38:35;101328.03;;;5.67;61.44
27805;BME280;15183;51.350;11.102;2023-01-28T09:47:07;101333.94;;;5.69;61.02
27805;BME280;15183;51.350;11.102;2023-01-28T09:49:43;101334.72;;;5.61;61.56
27805;BME280;15183;51.350;11.102;2023-01-28T09:52:14;101330.97;;;5.64;61.54
27805;BME280;15183;51.350;11.102;2023-01-28T09:54:47;101353.56;;;5.75;61.28
27805;BME280;15183;51.350;11.102;2023-01-28T09:57:28;101357.88;;;5.84;61.64
27805;BME280;15183;51.350;11.102;2023-01-28T09:59:56;101340.13;;;5.86;61.19
27805;BME280;15183;51.350;11.102;2023-01-28T10:06:39;101338.50;;;5.93;61.38
27805;BME280;15183;51.350;11.102;2023-01-28T10:14:47;101361.34;;;6.11;60.13
27805;BME280;15183;51.350;11.102;2023-01-28T10:17:30;101352.41;;;6.04;60.69
27805;BME280;15183;51.350;11.102;2023-01-28T10:20:17;101326.44;;;5.83;60.55
27805;BME280;15183;51.350;11.102;2023-01-28T10:23:11;101355.47;;;5.99;60.86
27805;BME280;15183;51.350;11.102;2023-01-28T10:25:41;101357.97;;;6.01;60.85
27805;BME280;15183;51.350;11.102;2023-01-28T10:28:25;101350.22;;;5.99;60.73
27805;BME280;15183;51.350;11.102;2023-01-28T10:30:55;101347.59;;;5.99;60.83
27805;BME280;15183;51.350;11.102;2023-01-28T10:33:35;101280.00;;;5.57;60.75
27805;BME280;15183;51.350;11.102;2023-01-28T10:36:03;101347.97;;;6.04;60.21
27805;BME280;15183;51.350;11.102;2023-01-28T10:38:30;101290.38;;;5.67;60.38
27805;BME280;15183;51.350;11.102;2023-01-28T10:41:02;101256.41;;;5.39;60.17
27805;BME280;15183;51.350;11.102;2023-01-28T10:43:32;101334.56;;;5.89;60.69
27805;BME280;15183;51.350;11.102;2023-01-28T10:46:20;101318.22;;;5.77;59.63
27805;BME280;15183;51.350;11.102;2023-01-28T10:49:27;101337.50;;;5.86;60.44
27805;BME280;15183;51.350;11.102;2023-01-28T10:51:54;101332.91;;;5.88;60.43
27805;BME280;15183;51.350;11.102;2023-01-28T10:54:26;101317.09;;;5.80;60.30
27805;BME280;15183;51.350;11.102;2023-01-28T10:57:15;101333.88;;;5.87;61.01
27805;BME280;15183;51.350;11.102;2023-01-28T10:59:42;101305.41;;;5.83;61.22
27805;BME280;15183;51.350;11.102;2023-01-28T11:02:42;101333.41;;;6.18;61.22
27805;BME280;15183;51.350;11.102;2023-01-28T11:05:17;101315.94;;;6.09;60.77
27805;BME280;15183;51.350;11.102;2023-01-28T11:07:44;101284.75;;;5.88;60.92
27805;BME280;15183;51.350;11.102;2023-01-28T11:10:33;101340.78;;;6.23;60.22
27805;BME280;15183;51.350;11.102;2023-01-28T11:13:04;101345.38;;;6.13;60.80
27805;BME280;15183;51.350;11.102;2023-01-28T11:15:31;101336.16;;;6.08;60.30
27805;BME280;15183;51.350;11.102;2023-01-28T11:18:03;101340.09;;;6.13;60.22
27805;BME280;15183;51.350;11.102;2023-01-28T11:20:39;101336.16;;;6.08;60.43
27805;BME280;15183;51.350;11.102;2023-01-28T11:23:06;101318.63;;;5.91;60.02
27805;BME280;15183;51.350;11.102;2023-01-28T11:25:35;101313.47;;;5.81;60.00
27805;BME280;15183;51.350;11.102;2023-01-28T11:28:17;101323.22;;;5.89;59.27
27805;BME280;15183;51.350;11.102;2023-01-28T11:30:51;101329.28;;;5.89;59.45
27805;BME280;15183;51.350;11.102;2023-01-28T11:33:42;101308.63;;;5.68;59.17
27805;BME280;15183;51.350;11.102;2023-01-28T11:36:16;101316.00;;;5.64;59.05
27805;BME280;15183;51.350;11.102;2023-01-28T11:38:53;101325.97;;;5.79;59.35
27805;BME280;15183;51.350;11.102;2023-01-28T11:41:33;101310.50;;;5.76;60.03
27805;BME280;15183;51.350;11.102;2023-01-28T11:44:21;101323.41;;;5.96;60.00
27805;BME280;15183;51.350;11.102;2023-01-28T11:49:52;101316.09;;;5.81;59.97
27805;BME280;15183;51.350;11.102;2023-01-28T11:52:54;101342.13;;;5.92;59.95
27805;BME280;15183;51.350;11.102;2023-01-28T11:56:08;101328.78;;;5.86;60.00
27805;BME280;15183;51.350;11.102;2023-01-28T12:07:47;101323.13;;;5.72;59.70
27805;BME280;15183;51.350;11.102;2023-01-28T12:16:34;101305.81;;;5.96;60.11
27805;BME280;15183;51.350;11.102;2023-01-28T12:28:14;101309.09;;;6.33;59.82
27805;BME280;15183;51.350;11.102;2023-01-28T12:31:06;101287.88;;;6.34;59.96
27805;BME280;15183;51.350;11.102;2023-01-28T12:34:18;101300.41;;;6.57;59.46
27805;BME280;15183;51.350;11.102;2023-01-28T12:37:06;101311.00;;;6.74;58.99
27805;BME280;15183;51.350;11.102;2023-01-28T12:46:03;101230.44;;;5.78;59.20
27805;BME280;15183;51.350;11.102;2023-01-28T12:48:36;101314.66;;;6.21;59.31
27805;BME280;15183;51.350;11.102;2023-01-28T12:51:15;101299.50;;;6.07;58.95
27805;BME280;15183;51.350;11.102;2023-01-28T12:54:16;101323.78;;;6.01;58.60
27805;BME280;15183;51.350;11.102;2023-01-28T12:56:53;101312.09;;;5.69;59.17
27805;BME280;15183;51.350;11.102;2023-01-28T12:59:38;101259.59;;;5.24;58.77
27805;BME280;15183;51.350;11.102;2023-01-28T13:04:51;101323.19;;;5.54;58.97
27805;BME280;15183;51.350;11.102;2023-01-28T13:07:36;101316.53;;;5.42;59.31
27805;BME280;15183;51.350;11.102;2023-01-28T13:10:20;101334.47;;;5.46;59.37
27805;BME280;15183;51.350;11.102;2023-01-28T13:12:50;101329.72;;;5.50;59.12
27805;BME280;15183;51.350;11.102;2023-01-28T13:15:18;101295.19;;;5.45;59.16
27805;BME280;15183;51.350;11.102;2023-01-28T13:18:00;101306.63;;;5.62;58.87
27805;BME280;15183;51.350;11.102;2023-01-28T13:20:48;101308.91;;;5.57;58.28
27805;BME280;15183;51.350;11.102;2023-01-28T13:23:39;101313.81;;;5.52;58.81
27805;BME280;15183;51.350;11.102;2023-01-28T13:28:46;101308.13;;;5.38;58.99
27805;BME280;15183;51.350;11.102;2023-01-28T13:31:17;101319.94;;;5.34;58.96
27805;BME280;15183;51.350;11.102;2023-01-28T13:36:27;101305.66;;;5.36;59.38
27805;BME280;15183;51.350;11.102;2023-01-28T13:42:19;101309.91;;;5.56;60.11
27805;BME280;15183;51.350;11.102;2023-01-28T13:44:47;101309.94;;;5.64;59.77
27805;BME280;15183;51.350;11.102;2023-01-28T13:47:33;101304.88;;;5.71;59.20
27805;BME280;15183;51.350;11.102;2023-01-28T13:50:05;101308.84;;;5.75;59.39
27805;BME280;15183;51.350;11.102;2023-01-28T13:52:58;101309.75;;;5.65;59.07
27805;BME280;15183;51.350;11.102;2023-01-28T13:55:36;101307.91;;;5.49;59.23
27805;BME280;15183;51.350;11.102;2023-01-28T14:15:57;101293.56;;;5.78;60.41
27805;BME280;15183;51.350;11.102;2023-01-28T14:18:39;101300.38;;;5.98;60.30
27805;BME280;15183;51.350;11.102;2023-01-28T14:21:21;101291.22;;;6.02;59.79
27805;BME280;15183;51.350;11.102;2023-01-28T14:23:54;101286.69;;;6.12;60.07
27805;BME280;15183;51.350;11.102;2023-01-28T14:26:45;101305.13;;;6.20;60.44
27805;BME280;15183;51.350;11.102;2023-01-28T14:29:47;101296.34;;;6.12;60.12
27805;BME280;15183;51.350;11.102;2023-01-28T14:32:18;101284.91;;;5.94;59.92
27805;BME280;15183;51.350;11.102;2023-01-28T14:34:47;101237.13;;;5.64;59.99
27805;BME280;15183;51.350;11.102;2023-01-28T14:37:20;101272.09;;;5.91;60.03
27805;BME280;15183;51.350;11.102;2023-01-28T14:39:52;101258.88;;;5.75;59.75
27805;BME280;15183;51.350;11.102;2023-01-28T14:48:20;101271.44;;;5.98;60.38
27805;BME280;15183;51.350;11.102;2023-01-28T14:51:37;101271.56;;;6.14;60.49
27805;BME280;15183;51.350;11.102;2023-01-28T14:57:24;101243.94;;;6.35;61.06
27805;BME280;15183;51.350;11.102;2023-01-28T14:59:55;101251.56;;;6.55;60.53
27805;BME280;15183;51.350;11.102;2023-01-28T15:02:29;101180.91;;;6.17;60.56
27805;BME280;15183;51.350;11.102;2023-01-28T15:05:14;101239.38;;;6.62;60.41
27805;BME280;15183;51.350;11.102;2023-01-28T15:07:46;101253.03;;;6.74;60.00